sensor_id;sensor_type;location;lat;lon;timestamp;P1;durP1;ratioP1;P2;durP2;ratioP2
44606;SDS011;30315;46.072;14.474;2022-08-19T00:01:35;6.97;;;2.83;;
44606;SDS011;30315;46.072;14.474;2022-08-19T00:04:04;7.60;;;2.78;;
44606;SDS011;30315;46.072;14.474;2022-08-19T00:06:35;6.75;;;3.10;;
44606;SDS011;30315;46.072;14.474;2022-08-19T00:09:04;7.22;;;2.88;;
44606;SDS011;30315;46.072;14.474;2022-08-19T00:11:33;5.22;;;3.08;;
44606;SDS011;30315;46.072;14.474;2022-08-19T00:14:02;8.68;;;2.90;;
44606;SDS011;30315;46.072;14.474;2022-08-19T00:16:30;3.88;;;2.63;;
44606;SDS011;30315;46.072;14.474;2022-08-19T00:18:57;7.50;;;2.95;;
44606;SDS011;30315;46.072;14.474;2022-08-19T00:21:25;7.72;;;2.88;;
44606;SDS011;30315;46.072;14.474;2022-08-19T00:23:56;4.60;;;2.53;;
44606;SDS011;30315;46.072;14.474;2022-08-19T00:26:25;6.28;;;3.22;;
44606;SDS011;30315;46.072;14.474;2022-08-19T00:28:52;3.40;;;3.03;;
44606;SDS011;30315;46.072;14.474;2022-08-19T00:31:20;8.02;;;3.35;;
44606;SDS011;30315;46.072;14.474;2022-08-19T00:33:47;6.53;;;2.70;;
44606;SDS011;30315;46.072;14.474;2022-08-19T00:38:43;3.97;;;2.80;;
44606;SDS011;30315;46.072;14.474;2022-08-19T00:41:15;8.27;;;3.22;;
44606;SDS011;30315;46.072;14.474;2022-08-19T00:44:04;10.48;;;3.42;;
44606;SDS011;30315;46.072;14.474;2022-08-19T00:46:35;6.50;;;2.95;;
44606;SDS011;30315;46.072;14.474;2022-08-19T00:49:23;6.22;;;3.22;;
44606;SDS011;30315;46.072;14.474;2022-08-19T00:51:55;9.98;;;3.05;;
44606;SDS011;30315;46.072;14.474;2022-08-19T00:54:30;7.20;;;3.25;;
44606;SDS011;30315;46.072;14.474;2022-08-19T00:56:58;6.22;;;3.05;;
44606;SDS011;30315;46.072;14.474;2022-08-19T00:59:26;8.90;;;3.60;;
44606;SDS011;30315;46.072;14.474;2022-08-19T01:02:15;6.53;;;3.17;;
44606;SDS011;30315;46.072;14.474;2022-08-19T01:04:42;5.07;;;3.17;;
44606;SDS011;30315;46.072;14.474;2022-08-19T01:07:10;7.22;;;3.40;;
44606;SDS011;30315;46.072;14.474;2022-08-19T01:09:42;8.85;;;3.80;;
44606;SDS011;30315;46.072;14.474;2022-08-19T01:12:09;3.65;;;3.25;;
44606;SDS011;30315;46.072;14.474;2022-08-19T01:14:37;8.15;;;3.30;;
44606;SDS011;30315;46.072;14.474;2022-08-19T01:19:39;6.00;;;2.90;;
44606;SDS011;30315;46.072;14.474;2022-08-19T01:22:30;4.45;;;3.40;;
44606;SDS011;30315;46.072;14.474;2022-08-19T01:25:01;6.55;;;3.55;;
44606;SDS011;30315;46.072;14.474;2022-08-19T01:27:37;5.28;;;3.33;;
44606;SDS011;30315;46.072;14.474;2022-08-19T01:30:10;6.70;;;3.03;;
44606;SDS011;30315;46.072;14.474;2022-08-19T01:32:39;7.00;;;3.50;;
44606;SDS011;30315;46.072;14.474;2022-08-19T01:35:07;6.93;;;3.25;;
44606;SDS011;30315;46.072;14.474;2022-08-19T01:37:43;7.20;;;3.47;;
44606;SDS011;30315;46.072;14.474;2022-08-19T01:40:12;4.78;;;2.58;;
44606;SDS011;30315;46.072;14.474;2022-08-19T01:42:39;6.03;;;3.13;;
44606;SDS011;30315;46.072;14.474;2022-08-19T01:45:07;7.15;;;3.15;;
44606;SDS011;30315;46.072;14.474;2022-08-19T01:47:35;5.53;;;3.25;;
44606;SDS011;30315;46.072;14.474;2022-08-19T01:50:04;5.60;;;3.37;;
44606;SDS011;30315;46.072;14.474;2022-08-19T01:52:34;5.68;;;3.60;;
44606;SDS011;30315;46.072;14.474;2022-08-19T01:55:07;6.05;;;3.45;;
44606;SDS011;30315;46.072;14.474;2022-08-19T01:57:35;7.38;;;3.10;;
44606;SDS011;30315;46.072;14.474;2022-08-19T02:00:05;10.25;;;3.38;;
44606;SDS011;30315;46.072;14.474;2022-08-19T02:02:37;5.10;;;3.47;;
44606;SDS011;30315;46.072;14.474;2022-08-19T02:05:04;5.65;;;3.70;;
44606;SDS011;30315;46.072;14.474;2022-08-19T02:07:36;8.23;;;3.53;;
44606;SDS011;30315;46.072;14.474;2022-08-19T02:10:08;7.53;;;4.03;;
44606;SDS011;30315;46.072;14.474;2022-08-19T02:15:44;7.63;;;3.58;;
44606;SDS011;30315;46.072;14.474;2022-08-19T02:18:12;8.50;;;3.90;;
44606;SDS011;30315;46.072;14.474;2022-08-19T02:20:41;6.82;;;3.30;;
44606;SDS011;30315;46.072;14.474;2022-08-19T02:23:09;8.80;;;3.88;;
44606;SDS011;30315;46.072;14.474;2022-08-19T02:25:41;7.07;;;3.60;;
44606;SDS011;30315;46.072;14.474;2022-08-19T02:28:10;8.68;;;3.03;;
44606;SDS011;30315;46.072;14.474;2022-08-19T02:30:43;5.82;;;2.75;;
44606;SDS011;30315;46.072;14.474;2022-08-19T02:33:11;6.38;;;2.08;;
44606;SDS011;30315;46.072;14.474;2022-08-19T02:35:40;7.13;;;1.83;;
44606;SDS011;30315;46.072;14.474;2022-08-19T02:38:08;3.72;;;1.33;;
44606;SDS011;30315;46.072;14.474;2022-08-19T02:40:55;2.40;;;1.77;;
44606;SDS011;30315;46.072;14.474;2022-08-19T02:43:25;5.93;;;1.70;;
44606;SDS011;30315;46.072;14.474;2022-08-19T02:45:54;3.22;;;1.50;;
44606;SDS011;30315;46.072;14.474;2022-08-19T02:48:22;2.97;;;1.25;;
44606;SDS011;30315;46.072;14.474;2022-08-19T02:50:51;3.83;;;1.50;;
44606;SDS011;30315;46.072;14.474;2022-08-19T02:53:26;3.58;;;1.90;;
44606;SDS011;30315;46.072;14.474;2022-08-19T02:55:53;4.97;;;1.77;;
44606;SDS011;30315;46.072;14.474;2022-08-19T02:58:21;6.45;;;2.42;;
44606;SDS011;30315;46.072;14.474;2022-08-19T03:03:19;4.80;;;1.88;;
44606;SDS011;30315;46.072;14.474;2022-08-19T03:05:46;4.05;;;1.65;;
44606;SDS011;30315;46.072;14.474;2022-08-19T03:08:22;4.28;;;1.90;;
44606;SDS011;30315;46.072;14.474;2022-08-19T03:10:50;4.85;;;1.90;;
44606;SDS011;30315;46.072;14.474;2022-08-19T03:13:19;3.72;;;1.52;;
44606;SDS011;30315;46.072;14.474;2022-08-19T03:15:46;5.93;;;2.08;;
44606;SDS011;30315;46.072;14.474;2022-08-19T03:18:14;8.68;;;2.28;;
44606;SDS011;30315;46.072;14.474;2022-08-19T03:20:44;2.78;;;1.98;;
44606;SDS011;30315;46.072;14.474;2022-08-19T03:23:12;4.63;;;2.00;;
44606;SDS011;30315;46.072;14.474;2022-08-19T03:25:40;3.75;;;2.00;;
44606;SDS011;30315;46.072;14.474;2022-08-19T03:28:10;7.35;;;2.00;;
44606;SDS011;30315;46.072;14.474;2022-08-19T03:30:39;4.82;;;1.92;;
44606;SDS011;30315;46.072;14.474;2022-08-19T03:33:09;8.00;;;2.50;;
44606;SDS011;30315;46.072;14.474;2022-08-19T03:35:43;3.80;;;2.28;;
44606;SDS011;30315;46.072;14.474;2022-08-19T03:38:11;4.18;;;1.80;;
44606;SDS011;30315;46.072;14.474;2022-08-19T03:40:38;11.02;;;2.53;;
44606;SDS011;30315;46.072;14.474;2022-08-19T03:43:05;6.00;;;2.38;;
44606;SDS011;30315;46.072;14.474;2022-08-19T03:45:32;5.32;;;2.85;;
44606;SDS011;30315;46.072;14.474;2022-08-19T03:47:59;6.55;;;2.60;;
44606;SDS011;30315;46.072;14.474;2022-08-19T03:50:26;6.38;;;2.50;;
44606;SDS011;30315;46.072;14.474;2022-08-19T03:52:53;5.47;;;2.80;;
44606;SDS011;30315;46.072;14.474;2022-08-19T03:55:20;7.90;;;2.35;;
44606;SDS011;30315;46.072;14.474;2022-08-19T03:57:47;3.25;;;2.40;;
44606;SDS011;30315;46.072;14.474;2022-08-19T04:00:15;4.03;;;2.28;;
44606;SDS011;30315;46.072;14.474;2022-08-19T04:02:42;5.88;;;2.70;;
44606;SDS011;30315;46.072;14.474;2022-08-19T04:05:27;5.43;;;2.53;;
44606;SDS011;30315;46.072;14.474;2022-08-19T04:07:54;6.47;;;2.80;;
44606;SDS011;30315;46.072;14.474;2022-08-19T04:10:25;6.00;;;2.42;;
44606;SDS011;30315;46.072;14.474;2022-08-19T04:12:52;6.85;;;2.55;;
44606;SDS011;30315;46.072;14.474;2022-08-19T04:15:19;4.75;;;2.10;;
44606;SDS011;30315;46.072;14.474;2022-08-19T04:17:46;4.15;;;3.00;;
44606;SDS011;30315;46.072;14.474;2022-08-19T04:20:13;4.28;;;2.38;;
44606;SDS011;30315;46.072;14.474;2022-08-19T04:22:40;10.02;;;2.67;;
44606;SDS011;30315;46.072;14.474;2022-08-19T04:25:08;3.45;;;1.90;;
44606;SDS011;30315;46.072;14.474;2022-08-19T04:27:35;6.68;;;2.08;;
44606;SDS011;30315;46.072;14.474;2022-08-19T04:30:06;6.22;;;2.53;;
44606;SDS011;30315;46.072;14.474;2022-08-19T04:32:33;4.97;;;2.80;;
44606;SDS011;30315;46.072;14.474;2022-08-19T04:35:01;5.57;;;2.50;;
44606;SDS011;30315;46.072;14.474;2022-08-19T04:37:43;4.32;;;2.80;;
44606;SDS011;30315;46.072;14.474;2022-08-19T04:40:10;4.95;;;2.47;;
44606;SDS011;30315;46.072;14.474;2022-08-19T04:42:56;3.90;;;2.33;;
44606;SDS011;30315;46.072;14.474;2022-08-19T04:45:23;3.95;;;2.50;;
44606;SDS011;30315;46.072;14.474;2022-08-19T04:47:53;5.32;;;2.50;;
44606;SDS011;30315;46.072;14.474;2022-08-19T04:50:25;6.13;;;2.45;;
44606;SDS011;30315;46.072;14.474;2022-08-19T04:52:52;4.85;;;2.17;;
44606;SDS011;30315;46.072;14.474;2022-08-19T04:55:21;8.25;;;2.83;;
44606;SDS011;30315;46.072;14.474;2022-08-19T04:57:51;6.53;;;2.53;;
44606;SDS011;30315;46.072;14.474;2022-08-19T05:00:19;5.78;;;2.60;;
44606;SDS011;30315;46.072;14.474;2022-08-19T05:02:46;9.57;;;2.45;;
44606;SDS011;30315;46.072;14.474;2022-08-19T05:05:13;5.60;;;2.58;;
44606;SDS011;30315;46.072;14.474;2022-08-19T05:07:40;3.97;;;2.13;;
44606;SDS011;30315;46.072;14.474;2022-08-19T05:10:07;7.03;;;2.15;;
44606;SDS011;30315;46.072;14.474;2022-08-19T05:12:34;4.53;;;2.20;;
44606;SDS011;30315;46.072;14.474;2022-08-19T05:15:04;6.15;;;2.50;;
44606;SDS011;30315;46.072;14.474;2022-08-19T05:17:32;3.15;;;2.20;;
44606;SDS011;30315;46.072;14.474;2022-08-19T05:20:07;4.75;;;2.10;;
44606;SDS011;30315;46.072;14.474;2022-08-19T05:22:54;4.95;;;2.13;;
44606;SDS011;30315;46.072;14.474;2022-08-19T05:25:22;6.03;;;2.30;;
44606;SDS011;30315;46.072;14.474;2022-08-19T05:27:50;5.43;;;2.15;;
44606;SDS011;30315;46.072;14.474;2022-08-19T05:30:17;7.40;;;2.05;;
44606;SDS011;30315;46.072;14.474;2022-08-19T05:33:04;5.78;;;2.35;;
44606;SDS011;30315;46.072;14.474;2022-08-19T05:35:32;5.05;;;2.20;;
44606;SDS011;30315;46.072;14.474;2022-08-19T05:38:00;4.95;;;2.25;;
44606;SDS011;30315;46.072;14.474;2022-08-19T05:40:27;5.22;;;2.70;;
44606;SDS011;30315;46.072;14.474;2022-08-19T05:42:54;5.88;;;2.00;;
44606;SDS011;30315;46.072;14.474;2022-08-19T05:45:22;7.13;;;2.25;;
44606;SDS011;30315;46.072;14.474;2022-08-19T05:47:49;6.22;;;1.98;;
44606;SDS011;30315;46.072;14.474;2022-08-19T05:50:16;2.75;;;2.10;;
44606;SDS011;30315;46.072;14.474;2022-08-19T05:52:43;6.53;;;2.13;;
44606;SDS011;30315;46.072;14.474;2022-08-19T05:55:15;5.78;;;2.20;;
44606;SDS011;30315;46.072;14.474;2022-08-19T05:57:43;4.40;;;2.50;;
44606;SDS011;30315;46.072;14.474;2022-08-19T06:00:10;7.03;;;2.20;;
44606;SDS011;30315;46.072;14.474;2022-08-19T06:02:37;3.08;;;2.15;;
44606;SDS011;30315;46.072;14.474;2022-08-19T06:05:05;4.38;;;2.35;;
44606;SDS011;30315;46.072;14.474;2022-08-19T06:07:36;5.53;;;2.83;;
44606;SDS011;30315;46.072;14.474;2022-08-19T06:10:03;4.55;;;2.50;;
44606;SDS011;30315;46.072;14.474;2022-08-19T06:12:32;4.07;;;2.03;;
44606;SDS011;30315;46.072;14.474;2022-08-19T06:15:09;3.20;;;2.37;;
44606;SDS011;30315;46.072;14.474;2022-08-19T06:17:37;3.10;;;2.30;;
44606;SDS011;30315;46.072;14.474;2022-08-19T06:20:05;6.32;;;2.75;;
44606;SDS011;30315;46.072;14.474;2022-08-19T06:22:43;5.53;;;2.50;;
44606;SDS011;30315;46.072;14.474;2022-08-19T06:25:12;4.53;;;2.20;;
44606;SDS011;30315;46.072;14.474;2022-08-19T06:27:40;3.85;;;2.60;;
44606;SDS011;30315;46.072;14.474;2022-08-19T06:30:27;4.65;;;2.03;;
44606;SDS011;30315;46.072;14.474;2022-08-19T06:32:54;2.83;;;1.80;;
44606;SDS011;30315;46.072;14.474;2022-08-19T06:35:22;6.72;;;2.38;;
44606;SDS011;30315;46.072;14.474;2022-08-19T06:37:48;4.47;;;2.05;;
44606;SDS011;30315;46.072;14.474;2022-08-19T06:40:16;4.38;;;2.47;;
44606;SDS011;30315;46.072;14.474;2022-08-19T06:42:43;5.43;;;2.15;;
44606;SDS011;30315;46.072;14.474;2022-08-19T06:45:20;4.38;;;1.90;;
44606;SDS011;30315;46.072;14.474;2022-08-19T06:48:04;3.83;;;1.98;;
44606;SDS011;30315;46.072;14.474;2022-08-19T06:50:31;2.45;;;1.80;;
44606;SDS011;30315;46.072;14.474;2022-08-19T06:53:01;3.25;;;2.15;;
44606;SDS011;30315;46.072;14.474;2022-08-19T06:55:30;3.35;;;2.35;;
44606;SDS011;30315;46.072;14.474;2022-08-19T06:58:01;5.03;;;2.05;;
44606;SDS011;30315;46.072;14.474;2022-08-19T07:00:30;2.38;;;1.80;;
44606;SDS011;30315;46.072;14.474;2022-08-19T07:03:02;6.95;;;2.15;;
44606;SDS011;30315;46.072;14.474;2022-08-19T07:05:37;4.70;;;1.90;;
44606;SDS011;30315;46.072;14.474;2022-08-19T07:08:11;6.72;;;2.40;;
44606;SDS011;30315;46.072;14.474;2022-08-19T07:10:42;4.93;;;1.95;;
44606;SDS011;30315;46.072;14.474;2022-08-19T07:13:10;3.58;;;2.25;;
44606;SDS011;30315;46.072;14.474;2022-08-19T07:15:37;3.67;;;2.70;;
44606;SDS011;30315;46.072;14.474;2022-08-19T07:18:05;6.38;;;2.40;;
44606;SDS011;30315;46.072;14.474;2022-08-19T07:20:37;5.13;;;1.92;;
44606;SDS011;30315;46.072;14.474;2022-08-19T07:23:07;5.18;;;2.08;;
44606;SDS011;30315;46.072;14.474;2022-08-19T07:25:41;4.97;;;2.05;;
44606;SDS011;30315;46.072;14.474;2022-08-19T07:28:09;4.78;;;1.90;;
44606;SDS011;30315;46.072;14.474;2022-08-19T07:30:50;3.42;;;1.95;;
44606;SDS011;30315;46.072;14.474;2022-08-19T07:33:18;3.88;;;2.00;;
44606;SDS011;30315;46.072;14.474;2022-08-19T07:35:45;6.22;;;2.38;;
44606;SDS011;30315;46.072;14.474;2022-08-19T07:38:12;4.10;;;2.20;;
44606;SDS011;30315;46.072;14.474;2022-08-19T07:40:41;4.20;;;1.87;;
44606;SDS011;30315;46.072;14.474;2022-08-19T07:43:09;4.63;;;2.85;;
44606;SDS011;30315;46.072;14.474;2022-08-19T07:45:43;2.22;;;2.03;;
44606;SDS011;30315;46.072;14.474;2022-08-19T07:48:10;3.85;;;2.20;;
44606;SDS011;30315;46.072;14.474;2022-08-19T07:50:37;4.85;;;2.53;;
44606;SDS011;30315;46.072;14.474;2022-08-19T07:53:04;3.45;;;2.00;;
44606;SDS011;30315;46.072;14.474;2022-08-19T07:55:31;3.97;;;2.20;;
44606;SDS011;30315;46.072;14.474;2022-08-19T07:58:09;2.85;;;2.10;;
44606;SDS011;30315;46.072;14.474;2022-08-19T08:00:41;5.13;;;2.20;;
44606;SDS011;30315;46.072;14.474;2022-08-19T08:03:10;5.55;;;2.20;;
44606;SDS011;30315;46.072;14.474;2022-08-19T08:05:37;3.05;;;1.70;;
44606;SDS011;30315;46.072;14.474;2022-08-19T08:08:23;1.63;;;1.52;;
44606;SDS011;30315;46.072;14.474;2022-08-19T08:11:01;4.13;;;1.53;;
44606;SDS011;30315;46.072;14.474;2022-08-19T08:13:33;2.05;;;1.35;;
44606;SDS011;30315;46.072;14.474;2022-08-19T08:16:04;2.38;;;1.52;;
44606;SDS011;30315;46.072;14.474;2022-08-19T08:18:39;4.35;;;1.92;;
44606;SDS011;30315;46.072;14.474;2022-08-19T08:21:08;2.25;;;1.40;;
44606;SDS011;30315;46.072;14.474;2022-08-19T08:23:35;3.42;;;1.35;;
44606;SDS011;30315;46.072;14.474;2022-08-19T08:26:05;3.78;;;1.77;;
44606;SDS011;30315;46.072;14.474;2022-08-19T08:28:32;3.47;;;1.58;;
44606;SDS011;30315;46.072;14.474;2022-08-19T08:30:58;3.22;;;1.67;;
44606;SDS011;30315;46.072;14.474;2022-08-19T08:33:26;3.53;;;1.63;;
44606;SDS011;30315;46.072;14.474;2022-08-19T08:36:06;5.05;;;1.70;;
44606;SDS011;30315;46.072;14.474;2022-08-19T08:38:35;2.08;;;1.50;;
44606;SDS011;30315;46.072;14.474;2022-08-19T08:43:50;3.40;;;1.88;;
44606;SDS011;30315;46.072;14.474;2022-08-19T08:46:26;3.38;;;1.75;;
44606;SDS011;30315;46.072;14.474;2022-08-19T08:49:06;3.65;;;1.52;;
44606;SDS011;30315;46.072;14.474;2022-08-19T08:51:48;6.70;;;1.58;;
44606;SDS011;30315;46.072;14.474;2022-08-19T08:54:34;2.75;;;1.50;;
44606;SDS011;30315;46.072;14.474;2022-08-19T08:57:25;4.40;;;1.52;;
44606;SDS011;30315;46.072;14.474;2022-08-19T09:00:12;1.95;;;1.50;;
44606;SDS011;30315;46.072;14.474;2022-08-19T09:02:43;3.00;;;1.75;;
44606;SDS011;30315;46.072;14.474;2022-08-19T09:05:16;2.63;;;1.55;;
44606;SDS011;30315;46.072;14.474;2022-08-19T09:10:34;2.03;;;1.35;;
44606;SDS011;30315;46.072;14.474;2022-08-19T09:16:21;2.40;;;1.30;;
44606;SDS011;30315;46.072;14.474;2022-08-19T09:18:57;3.13;;;1.60;;
44606;SDS011;30315;46.072;14.474;2022-08-19T09:21:32;4.30;;;1.90;;
44606;SDS011;30315;46.072;14.474;2022-08-19T09:24:01;2.97;;;1.60;;
44606;SDS011;30315;46.072;14.474;2022-08-19T09:26:31;6.80;;;2.08;;
44606;SDS011;30315;46.072;14.474;2022-08-19T09:29:14;4.30;;;2.03;;
44606;SDS011;30315;46.072;14.474;2022-08-19T09:31:42;3.70;;;1.70;;
44606;SDS011;30315;46.072;14.474;2022-08-19T09:34:09;2.50;;;1.90;;
44606;SDS011;30315;46.072;14.474;2022-08-19T09:36:46;2.47;;;1.92;;
44606;SDS011;30315;46.072;14.474;2022-08-19T09:39:18;1.60;;;1.50;;
44606;SDS011;30315;46.072;14.474;2022-08-19T09:41:46;5.63;;;1.65;;
44606;SDS011;30315;46.072;14.474;2022-08-19T09:44:14;2.78;;;1.40;;
44606;SDS011;30315;46.072;14.474;2022-08-19T09:46:43;2.65;;;1.70;;
44606;SDS011;30315;46.072;14.474;2022-08-19T09:49:10;4.63;;;1.65;;
44606;SDS011;30315;46.072;14.474;2022-08-19T09:51:38;3.05;;;1.50;;
44606;SDS011;30315;46.072;14.474;2022-08-19T09:54:06;1.98;;;1.75;;
44606;SDS011;30315;46.072;14.474;2022-08-19T09:56:36;4.78;;;1.80;;
44606;SDS011;30315;46.072;14.474;2022-08-19T09:59:03;3.80;;;1.92;;
44606;SDS011;30315;46.072;14.474;2022-08-19T10:01:31;4.20;;;2.17;;
44606;SDS011;30315;46.072;14.474;2022-08-19T10:03:59;5.05;;;1.90;;
44606;SDS011;30315;46.072;14.474;2022-08-19T10:06:35;2.53;;;1.70;;
44606;SDS011;30315;46.072;14.474;2022-08-19T10:09:12;3.00;;;1.90;;
44606;SDS011;30315;46.072;14.474;2022-08-19T10:11:40;3.10;;;1.80;;
44606;SDS011;30315;46.072;14.474;2022-08-19T10:16:50;7.13;;;2.10;;
44606;SDS011;30315;46.072;14.474;2022-08-19T10:19:18;5.22;;;2.05;;
44606;SDS011;30315;46.072;14.474;2022-08-19T10:21:51;2.40;;;1.48;;
44606;SDS011;30315;46.072;14.474;2022-08-19T10:24:25;2.58;;;1.80;;
44606;SDS011;30315;46.072;14.474;2022-08-19T10:26:54;2.17;;;1.50;;
44606;SDS011;30315;46.072;14.474;2022-08-19T10:29:25;5.35;;;1.90;;
44606;SDS011;30315;46.072;14.474;2022-08-19T10:32:02;6.72;;;2.03;;
44606;SDS011;30315;46.072;14.474;2022-08-19T10:34:38;4.20;;;1.80;;
44606;SDS011;30315;46.072;14.474;2022-08-19T10:37:15;2.70;;;1.60;;
44606;SDS011;30315;46.072;14.474;2022-08-19T10:39:54;3.03;;;1.67;;
44606;SDS011;30315;46.072;14.474;2022-08-19T10:42:21;2.70;;;1.80;;
44606;SDS011;30315;46.072;14.474;2022-08-19T10:44:49;3.08;;;1.70;;
44606;SDS011;30315;46.072;14.474;2022-08-19T10:47:17;2.60;;;1.77;;
44606;SDS011;30315;46.072;14.474;2022-08-19T10:49:52;3.78;;;1.67;;
44606;SDS011;30315;46.072;14.474;2022-08-19T10:52:49;2.05;;;1.50;;
44606;SDS011;30315;46.072;14.474;2022-08-19T10:55:17;5.13;;;2.10;;
44606;SDS011;30315;46.072;14.474;2022-08-19T10:58:09;2.72;;;1.90;;
44606;SDS011;30315;46.072;14.474;2022-08-19T11:00:40;2.00;;;1.55;;
44606;SDS011;30315;46.072;14.474;2022-08-19T11:03:09;7.43;;;2.75;;
44606;SDS011;30315;46.072;14.474;2022-08-19T11:05:36;5.78;;;2.20;;
44606;SDS011;30315;46.072;14.474;2022-08-19T11:08:07;10.93;;;6.15;;
44606;SDS011;30315;46.072;14.474;2022-08-19T11:10:53;5.00;;;3.10;;
44606;SDS011;30315;46.072;14.474;2022-08-19T11:13:23;5.57;;;2.72;;
44606;SDS011;30315;46.072;14.474;2022-08-19T11:15:58;3.15;;;1.90;;
44606;SDS011;30315;46.072;14.474;2022-08-19T11:18:34;5.63;;;2.33;;
44606;SDS011;30315;46.072;14.474;2022-08-19T11:21:12;7.05;;;2.42;;
44606;SDS011;30315;46.072;14.474;2022-08-19T11:23:43;5.03;;;2.10;;
44606;SDS011;30315;46.072;14.474;2022-08-19T11:26:11;4.13;;;1.85;;
44606;SDS011;30315;46.072;14.474;2022-08-19T11:28:39;4.05;;;2.20;;
44606;SDS011;30315;46.072;14.474;2022-08-19T11:31:17;9.48;;;2.65;;
44606;SDS011;30315;46.072;14.474;2022-08-19T11:33:45;8.55;;;3.00;;
44606;SDS011;30315;46.072;14.474;2022-08-19T11:36:13;4.88;;;2.55;;
44606;SDS011;30315;46.072;14.474;2022-08-19T11:38:41;6.10;;;2.83;;
44606;SDS011;30315;46.072;14.474;2022-08-19T11:41:08;3.65;;;2.38;;
44606;SDS011;30315;46.072;14.474;2022-08-19T11:43:35;2.88;;;2.10;;
44606;SDS011;30315;46.072;14.474;2022-08-19T11:46:04;6.38;;;2.20;;
44606;SDS011;30315;46.072;14.474;2022-08-19T11:48:34;5.30;;;2.22;;
44606;SDS011;30315;46.072;14.474;2022-08-19T11:51:09;4.10;;;2.03;;
44606;SDS011;30315;46.072;14.474;2022-08-19T11:54:01;5.70;;;2.38;;
44606;SDS011;30315;46.072;14.474;2022-08-19T11:56:30;5.18;;;1.98;;
44606;SDS011;30315;46.072;14.474;2022-08-19T11:58:58;4.75;;;2.13;;
44606;SDS011;30315;46.072;14.474;2022-08-19T12:01:26;5.55;;;1.98;;
44606;SDS011;30315;46.072;14.474;2022-08-19T12:03:54;4.15;;;2.15;;
44606;SDS011;30315;46.072;14.474;2022-08-19T12:06:29;2.13;;;1.80;;
44606;SDS011;30315;46.072;14.474;2022-08-19T12:08:59;5.45;;;2.40;;
44606;SDS011;30315;46.072;14.474;2022-08-19T12:11:28;4.75;;;2.10;;
44606;SDS011;30315;46.072;14.474;2022-08-19T12:14:00;5.80;;;2.42;;
44606;SDS011;30315;46.072;14.474;2022-08-19T12:16:27;8.45;;;2.28;;
44606;SDS011;30315;46.072;14.474;2022-08-19T12:18:58;5.53;;;2.28;;
44606;SDS011;30315;46.072;14.474;2022-08-19T12:21:30;5.00;;;1.88;;
44606;SDS011;30315;46.072;14.474;2022-08-19T12:23:58;5.95;;;2.17;;
44606;SDS011;30315;46.072;14.474;2022-08-19T12:26:28;5.00;;;2.40;;
44606;SDS011;30315;46.072;14.474;2022-08-19T12:28:58;3.95;;;2.22;;
44606;SDS011;30315;46.072;14.474;2022-08-19T12:31:26;4.03;;;2.60;;
44606;SDS011;30315;46.072;14.474;2022-08-19T12:33:54;4.65;;;2.65;;
44606;SDS011;30315;46.072;14.474;2022-08-19T12:36:22;6.45;;;2.63;;
44606;SDS011;30315;46.072;14.474;2022-08-19T12:38:49;6.05;;;3.10;;
44606;SDS011;30315;46.072;14.474;2022-08-19T12:41:18;6.30;;;2.30;;
44606;SDS011;30315;46.072;14.474;2022-08-19T12:43:47;8.90;;;2.65;;
44606;SDS011;30315;46.072;14.474;2022-08-19T12:48:44;8.77;;;2.92;;
44606;SDS011;30315;46.072;14.474;2022-08-19T12:51:13;8.98;;;2.13;;
44606;SDS011;30315;46.072;14.474;2022-08-19T12:53:47;4.28;;;1.60;;
44606;SDS011;30315;46.072;14.474;2022-08-19T12:56:18;4.32;;;1.85;;
44606;SDS011;30315;46.072;14.474;2022-08-19T12:58:48;3.63;;;2.05;;
44606;SDS011;30315;46.072;14.474;2022-08-19T13:01:18;2.78;;;1.58;;
44606;SDS011;30315;46.072;14.474;2022-08-19T13:03:48;4.57;;;1.58;;
44606;SDS011;30315;46.072;14.474;2022-08-19T13:06:16;2.42;;;1.80;;
44606;SDS011;30315;46.072;14.474;2022-08-19T13:08:45;10.38;;;2.80;;
44606;SDS011;30315;46.072;14.474;2022-08-19T13:11:14;3.80;;;1.90;;
44606;SDS011;30315;46.072;14.474;2022-08-19T13:13:47;4.60;;;2.50;;
44606;SDS011;30315;46.072;14.474;2022-08-19T13:16:20;2.63;;;1.70;;
44606;SDS011;30315;46.072;14.474;2022-08-19T13:19:02;5.35;;;2.53;;
44606;SDS011;30315;46.072;14.474;2022-08-19T13:21:31;3.67;;;2.28;;
44606;SDS011;30315;46.072;14.474;2022-08-19T13:23:58;7.45;;;2.13;;
44606;SDS011;30315;46.072;14.474;2022-08-19T13:26:25;6.10;;;2.35;;
44606;SDS011;30315;46.072;14.474;2022-08-19T13:28:53;3.35;;;2.30;;
44606;SDS011;30315;46.072;14.474;2022-08-19T13:31:41;6.75;;;2.50;;
44606;SDS011;30315;46.072;14.474;2022-08-19T13:34:33;5.45;;;2.60;;
44606;SDS011;30315;46.072;14.474;2022-08-19T13:37:02;5.97;;;2.22;;
44606;SDS011;30315;46.072;14.474;2022-08-19T13:39:31;7.03;;;3.15;;
44606;SDS011;30315;46.072;14.474;2022-08-19T13:41:59;8.40;;;2.92;;
44606;SDS011;30315;46.072;14.474;2022-08-19T13:44:28;4.32;;;2.58;;
44606;SDS011;30315;46.072;14.474;2022-08-19T13:47:02;5.00;;;2.47;;
44606;SDS011;30315;46.072;14.474;2022-08-19T13:49:35;7.88;;;2.75;;
44606;SDS011;30315;46.072;14.474;2022-08-19T13:52:03;8.35;;;3.05;;
44606;SDS011;30315;46.072;14.474;2022-08-19T13:54:32;4.20;;;2.55;;
44606;SDS011;30315;46.072;14.474;2022-08-19T13:56:59;4.63;;;2.58;;
44606;SDS011;30315;46.072;14.474;2022-08-19T13:59:26;3.53;;;2.40;;
44606;SDS011;30315;46.072;14.474;2022-08-19T14:01:57;3.65;;;2.42;;
44606;SDS011;30315;46.072;14.474;2022-08-19T14:04:24;5.47;;;2.22;;
44606;SDS011;30315;46.072;14.474;2022-08-19T14:06:51;3.60;;;2.20;;
44606;SDS011;30315;46.072;14.474;2022-08-19T14:09:18;4.03;;;1.88;;
44606;SDS011;30315;46.072;14.474;2022-08-19T14:11:45;5.45;;;2.00;;
44606;SDS011;30315;46.072;14.474;2022-08-19T14:14:12;3.00;;;1.80;;
44606;SDS011;30315;46.072;14.474;2022-08-19T14:16:41;2.78;;;1.92;;
44606;SDS011;30315;46.072;14.474;2022-08-19T14:19:09;2.78;;;1.70;;
44606;SDS011;30315;46.072;14.474;2022-08-19T14:21:35;4.57;;;1.83;;
44606;SDS011;30315;46.072;14.474;2022-08-19T14:24:07;2.53;;;1.70;;
44606;SDS011;30315;46.072;14.474;2022-08-19T14:26:34;2.60;;;1.60;;
44606;SDS011;30315;46.072;14.474;2022-08-19T14:29:01;5.63;;;2.20;;
44606;SDS011;30315;46.072;14.474;2022-08-19T14:31:28;3.63;;;1.70;;
44606;SDS011;30315;46.072;14.474;2022-08-19T14:33:56;5.70;;;1.77;;
44606;SDS011;30315;46.072;14.474;2022-08-19T14:36:23;3.42;;;1.67;;
44606;SDS011;30315;46.072;14.474;2022-08-19T14:38:50;3.25;;;1.73;;
44606;SDS011;30315;46.072;14.474;2022-08-19T14:41:18;3.78;;;1.67;;
44606;SDS011;30315;46.072;14.474;2022-08-19T14:43:49;3.75;;;2.05;;
44606;SDS011;30315;46.072;14.474;2022-08-19T14:46:18;3.15;;;1.85;;
44606;SDS011;30315;46.072;14.474;2022-08-19T14:48:47;2.33;;;1.80;;
44606;SDS011;30315;46.072;14.474;2022-08-19T14:51:18;3.20;;;1.85;;
44606;SDS011;30315;46.072;14.474;2022-08-19T14:56:18;3.35;;;1.80;;
44606;SDS011;30315;46.072;14.474;2022-08-19T14:58:48;2.72;;;1.67;;
44606;SDS011;30315;46.072;14.474;2022-08-19T15:01:18;2.65;;;1.60;;
44606;SDS011;30315;46.072;14.474;2022-08-19T15:03:47;3.22;;;1.40;;
44606;SDS011;30315;46.072;14.474;2022-08-19T15:06:15;5.07;;;1.70;;
44606;SDS011;30315;46.072;14.474;2022-08-19T15:08:42;1.52;;;1.35;;
44606;SDS011;30315;46.072;14.474;2022-08-19T15:11:12;4.40;;;1.80;;
44606;SDS011;30315;46.072;14.474;2022-08-19T15:13:42;3.75;;;1.48;;
44606;SDS011;30315;46.072;14.474;2022-08-19T15:16:10;2.40;;;1.60;;
44606;SDS011;30315;46.072;14.474;2022-08-19T15:18:44;2.03;;;1.50;;
44606;SDS011;30315;46.072;14.474;2022-08-19T15:21:12;2.40;;;1.33;;